Time;durP1;ratioP1;P1;durP2;ratioP2;P2;SDS_P1;SDS_P2;PMS_P1;PMS_P2;Temp;Humidity;BMP_temperature;BMP_pressure;BME280_temperature;BME280_humidity;BME280_pressure;Samples;Min_cycle;Max_cycle;Signal;HPM_P1;HPM_P2
2021/08/29 00:01:34;;;;;;;12.60;10.00;;;;;;;11.27;86.25;100252.20;95419;1178;86969;-55
2021/08/29 00:03:42;;;;;;;11.10;10.10;;;;;;;11.28;86.23;100252.83;95433;1180;93258;-55
2021/08/29 00:05:49;;;;;;;11.40;10.20;;;;;;;11.29;86.26;100251.63;95470;1180;79660;-55
2021/08/29 00:07:57;;;;;;;11.90;10.50;;;;;;;11.29;86.19;100249.50;95444;1180;81941;-58
2021/08/29 00:10:10;;;;;;;12.10;11.00;;;;;;;11.29;86.22;100245.13;95468;1180;97611;-57
2021/08/29 00:12:20;;;;;;;13.70;11.60;;;;;;;11.31;86.26;100242.62;95484;1180;86825;-57
2021/08/29 00:14:31;;;;;;;14.10;11.20;;;;;;;11.33;86.17;100241.84;95430;1178;93458;-58
2021/08/29 00:16:38;;;;;;;12.20;10.90;;;;;;;11.35;86.27;100243.44;95439;1180;81309;-57
2021/08/29 00:18:46;;;;;;;12.60;10.70;;;;;;;11.35;86.27;100239.92;95436;1180;81883;-56
2021/08/29 00:20:53;;;;;;;12.60;10.90;;;;;;;11.34;86.28;100238.14;95432;1180;97091;-59
2021/08/29 00:23:01;;;;;;;13.20;11.80;;;;;;;11.34;86.20;100242.92;95494;1180;87595;-57
2021/08/29 00:25:11;;;;;;;11.60;10.40;;;;;;;11.31;86.15;100239.66;95439;1179;93469;-56
2021/08/29 00:27:18;;;;;;;14.10;11.10;;;;;;;11.27;86.09;100243.79;95461;1178;80142;-56
2021/08/29 00:29:26;;;;;;;12.30;10.50;;;;;;;11.21;86.04;100239.84;95422;1180;80386;-60
2021/08/29 00:31:34;;;;;;;12.00;10.40;;;;;;;11.16;85.97;100236.52;95466;1180;97669;-59
2021/08/29 00:33:41;;;;;;;12.90;10.70;;;;;;;11.10;86.07;100230.16;95467;1180;87296;-57
2021/08/29 00:35:49;;;;;;;12.20;10.30;;;;;;;11.09;86.07;100232.10;95446;1180;93400;-57
2021/08/29 00:37:57;;;;;;;12.20;11.00;;;;;;;11.05;86.17;100233.11;95452;1180;80355;-58
2021/08/29 00:40:06;;;;;;;12.10;10.80;;;;;;;11.05;86.12;100232.70;95429;1181;81001;-56
2021/08/29 00:42:14;;;;;;;11.60;10.50;;;;;;;11.03;86.24;100235.84;95486;1180;96605;-55
2021/08/29 00:44:21;;;;;;;12.80;10.80;;;;;;;11.02;86.34;100234.17;95418;1180;86665;-58
2021/08/29 00:46:29;;;;;;;13.30;11.10;;;;;;;11.00;86.36;100237.02;95440;1180;93289;-57
2021/08/29 00:48:37;;;;;;;13.00;11.20;;;;;;;10.99;86.32;100239.71;95444;1180;78827;-57
2021/08/29 00:50:46;;;;;;;12.20;11.00;;;;;;;10.98;86.29;100239.08;95443;1180;80802;-58
2021/08/29 00:52:57;;;;;;;13.90;11.00;;;;;;;10.97;86.21;100243.18;95454;1178;98491;-56
2021/08/29 00:55:05;;;;;;;12.70;11.00;;;;;;;10.93;86.30;100243.70;95457;1180;86894;-58
2021/08/29 00:57:14;;;;;;;13.70;11.20;;;;;;;10.95;86.40;100245.77;95472;1180;93924;-56
2021/08/29 00:59:21;;;;;;;14.30;11.50;;;;;;;10.96;86.59;100245.92;95450;1180;79448;-56
2021/08/29 01:01:40;;;;;;;13.20;12.00;;;;;;;10.99;86.60;100243.67;95398;1179;81380;-56
2021/08/29 01:03:50;;;;;;;13.10;11.80;;;;;;;11.03;86.70;100246.94;95383;1180;96240;-60
2021/08/29 01:06:11;;;;;;;13.00;11.00;;;;;;;11.07;86.71;100247.09;95361;1180;87562;-59
2021/08/29 01:08:20;;;;;;;13.20;11.90;;;;;;;11.10;86.76;100245.54;95460;1180;93775;-57
2021/08/29 01:10:37;;;;;;;13.50;12.10;;;;;;;11.14;86.84;100246.73;95438;1179;78831;-56
2021/08/29 01:12:47;;;;;;;16.60;12.50;;;;;;;11.17;86.90;100249.52;95466;1180;80480;-57
2021/08/29 01:14:56;;;;;;;13.40;12.10;;;;;;;11.19;86.87;100253.44;95424;1180;96828;-56
2021/08/29 01:17:07;;;;;;;15.80;11.90;;;;;;;11.21;86.86;100251.02;95440;1180;87357;-57
2021/08/29 01:19:18;;;;;;;12.80;11.40;;;;;;;11.23;86.95;100249.47;95456;1179;92789;-56
2021/08/29 01:21:30;;;;;;;14.10;12.10;;;;;;;11.29;86.86;100253.16;95428;1180;78552;-55
2021/08/29 01:23:40;;;;;;;13.60;11.70;;;;;;;11.30;86.88;100254.29;95448;1180;82147;-60
2021/08/29 01:25:57;;;;;;;14.40;11.90;;;;;;;11.32;86.91;100256.10;95433;1180;97535;-60
2021/08/29 01:28:12;;;;;;;14.20;12.50;;;;;;;11.32;86.91;100256.73;95444;1179;87574;-60
2021/08/29 01:30:20;;;;;;;13.50;12.10;;;;;;;11.33;86.91;100259.44;95455;1180;93771;-60
2021/08/29 01:32:28;;;;;;;15.70;12.90;;;;;;;11.35;86.98;100260.98;95439;1180;78596;-59
2021/08/29 01:34:37;;;;;;;15.50;12.80;;;;;;;11.38;86.97;100256.27;95442;1179;81856;-55
2021/08/29 01:36:53;;;;;;;15.00;13.50;;;;;;;11.40;86.97;100257.45;95463;1180;98166;-59
2021/08/29 01:39:02;;;;;;;16.00;12.10;;;;;;;11.41;86.91;100256.37;95413;1180;88306;-57
2021/08/29 01:41:12;;;;;;;14.50;13.00;;;;;;;11.44;87.00;100252.80;95441;1180;93793;-56
2021/08/29 01:43:20;;;;;;;14.70;12.50;;;;;;;11.46;87.01;100252.83;95446;1180;77730;-58
2021/08/29 01:45:32;;;;;;;14.70;13.30;;;;;;;11.50;86.99;100252.05;95361;1180;80392;-57
2021/08/29 01:47:40;;;;;;;14.90;12.50;;;;;;;11.53;86.98;100247.92;95455;1180;96732;-57
2021/08/29 01:49:48;;;;;;;13.40;12.00;;;;;;;11.54;86.99;100252.13;95456;1180;86784;-57
2021/08/29 01:51:56;;;;;;;14.10;12.70;;;;;;;11.56;87.01;100251.94;95446;1179;93431;-57
2021/08/29 01:54:04;;;;;;;15.90;12.70;;;;;;;11.55;87.02;100252.88;95407;1180;78000;-59
2021/08/29 01:56:15;;;;;;;13.90;12.40;;;;;;;11.55;87.09;100250.19;95355;1180;82079;-59
2021/08/29 01:58:22;;;;;;;14.30;12.80;;;;;;;11.56;86.96;100248.44;95410;1180;96722;-58
2021/08/29 02:00:32;;;;;;;13.40;12.00;;;;;;;11.56;86.88;100247.23;95339;1179;88116;-59
2021/08/29 02:02:42;;;;;;;13.70;12.30;;;;;;;11.56;86.83;100247.07;95394;1180;94927;-61
2021/08/29 02:04:49;;;;;;;13.50;12.20;;;;;;;11.59;86.85;100246.16;95425;1180;78665;-61
2021/08/29 02:07:19;;;;;;;13.50;12.20;;;;;;;11.60;86.76;100249.17;95459;1180;80475;-61
2021/08/29 02:09:32;;;;;;;14.50;13.00;;;;;;;11.54;86.67;100243.17;95452;1179;97209;-57
2021/08/29 02:11:47;;;;;;;13.40;12.10;;;;;;;11.49;86.65;100243.19;95472;1180;88392;-56
2021/08/29 02:13:57;;;;;;;14.60;11.90;;;;;;;11.47;86.59;100241.19;95423;1180;95227;-56
2021/08/29 02:16:13;;;;;;;16.30;13.00;;;;;;;11.45;86.58;100247.62;95435;1180;77917;-56
2021/08/29 02:18:25;;;;;;;15.40;13.90;;;;;;;11.43;86.72;100249.19;95479;1180;81642;-57
2021/08/29 02:20:33;;;;;;;14.50;12.90;;;;;;;11.38;86.72;100250.35;95426;1180;99043;-57
2021/08/29 02:22:41;;;;;;;15.40;13.60;;;;;;;11.31;86.59;100247.27;95483;1180;87471;-56
2021/08/29 02:24:51;;;;;;;14.70;12.60;;;;;;;11.29;86.59;100245.67;95441;1180;94924;-59
2021/08/29 02:27:00;;;;;;;13.90;12.50;;;;;;;11.30;86.55;100243.10;95468;1180;79576;-59
2021/08/29 02:29:09;;;;;;;14.30;12.90;;;;;;;11.28;86.63;100240.30;95482;1180;81110;-56
2021/08/29 02:31:20;;;;;;;14.80;13.20;;;;;;;11.26;86.58;100240.51;95437;1180;97992;-58
2021/08/29 02:33:27;;;;;;;18.50;14.20;;;;;;;11.28;86.62;100240.27;95442;1180;86830;-57
2021/08/29 02:35:36;;;;;;;17.10;14.00;;;;;;;11.25;86.55;100237.38;95421;1180;93621;-57
2021/08/29 02:37:45;;;;;;;17.10;14.90;;;;;;;11.23;86.50;100236.11;95386;1180;78288;-57
2021/08/29 02:39:55;;;;;;;17.40;14.90;;;;;;;11.20;86.41;100234.71;95408;1180;80450;-58
2021/08/29 02:42:04;;;;;;;15.60;14.00;;;;;;;11.13;86.47;100229.42;95464;1180;97493;-57
2021/08/29 02:44:12;;;;;;;18.00;14.60;;;;;;;11.01;86.51;100235.83;95421;1180;87757;-60
2021/08/29 02:46:20;;;;;;;16.70;14.60;;;;;;;10.95;86.44;100235.27;95443;1180;94287;-60
2021/08/29 02:48:29;;;;;;;17.20;14.00;;;;;;;10.91;86.38;100234.54;95405;1180;80501;-57
2021/08/29 02:50:38;;;;;;;16.00;14.30;;;;;;;10.89;86.57;100233.64;95484;1180;81365;-57
2021/08/29 02:52:45;;;;;;;16.50;14.50;;;;;;;10.87;86.47;100234.38;95484;1180;98399;-55
2021/08/29 02:54:54;;;;;;;16.30;14.60;;;;;;;10.86;86.49;100235.11;95426;1180;88073;-59
2021/08/29 02:57:03;;;;;;;16.70;14.00;;;;;;;10.80;86.44;100231.08;95447;1180;93965;-59
2021/08/29 02:59:13;;;;;;;14.60;12.40;;;;;;;10.72;86.45;100229.59;95418;1180;80182;-60
2021/08/29 03:01:21;;;;;;;14.50;12.70;;;;;;;10.64;86.57;100222.83;95437;1180;80978;-59
2021/08/29 03:03:30;;;;;;;13.60;12.00;;;;;;;10.59;86.59;100221.58;95447;1180;97027;-56
2021/08/29 03:05:39;;;;;;;14.00;12.40;;;;;;;10.58;86.60;100223.81;95514;1178;87099;-55
2021/08/29 03:07:48;;;;;;;14.70;12.60;;;;;;;10.57;86.62;100225.21;95457;1180;93806;-57
2021/08/29 03:09:56;;;;;;;15.60;12.70;;;;;;;10.56;86.59;100222.54;95420;1179;80923;-60
2021/08/29 03:12:07;;;;;;;13.30;12.00;;;;;;;10.53;86.61;100226.42;95438;1180;81487;-60
2021/08/29 03:14:15;;;;;;;12.90;11.40;;;;;;;10.54;86.70;100227.67;95372;1180;95730;-56
2021/08/29 03:16:25;;;;;;;13.60;11.60;;;;;;;10.55;86.68;100228.05;95311;1180;87973;-56
2021/08/29 03:18:34;;;;;;;14.30;12.80;;;;;;;10.53;86.62;100226.84;95400;1180;93458;-59
2021/08/29 03:20:42;;;;;;;16.60;14.80;;;;;;;10.53;86.73;100218.73;95379;1180;80345;-60
2021/08/29 03:22:51;;;;;;;15.50;12.50;;;;;;;10.53;86.64;100216.04;95375;1180;81181;-63
2021/08/29 03:25:00;;;;;;;13.70;12.00;;;;;;;10.47;86.63;100217.48;95329;1180;97735;-56
2021/08/29 03:27:11;;;;;;;13.30;11.80;;;;;;;10.46;86.65;100216.45;95337;1180;87828;-56
2021/08/29 03:29:20;;;;;;;14.20;12.00;;;;;;;10.45;86.58;100214.71;95260;1180;94333;-59
2021/08/29 03:31:30;;;;;;;14.30;12.80;;;;;;;10.45;86.65;100214.75;95291;1180;78866;-59
2021/08/29 03:33:41;;;;;;;15.70;13.00;;;;;;;10.46;86.63;100210.77;95407;1180;81970;-61
2021/08/29 03:35:50;;;;;;;14.00;11.90;;;;;;;10.45;86.51;100209.85;95354;1180;96719;-60
2021/08/29 03:37:58;;;;;;;14.50;12.80;;;;;;;10.40;86.52;100214.98;95446;1180;87477;-60
2021/08/29 03:40:10;;;;;;;14.30;12.40;;;;;;;10.33;86.52;100215.50;95285;1180;93506;-56
2021/08/29 03:42:20;;;;;;;13.70;11.70;;;;;;;10.24;86.60;100218.98;95432;1180;78714;-58
2021/08/29 03:44:28;;;;;;;13.40;12.00;;;;;;;10.24;86.63;100216.98;95310;1180;81167;-55
2021/08/29 03:46:37;;;;;;;15.20;12.90;;;;;;;10.26;86.59;100215.89;95396;1179;97872;-57
2021/08/29 03:48:46;;;;;;;12.80;11.40;;;;;;;10.27;86.53;100211.52;95412;1180;86741;-60
2021/08/29 03:50:55;;;;;;;13.30;11.90;;;;;;;10.27;86.53;100207.84;95385;1180;94421;-60
2021/08/29 03:53:03;;;;;;;13.30;11.00;;;;;;;10.28;86.54;100209.05;95458;1180;78010;-60
2021/08/29 03:55:17;;;;;;;12.10;10.90;;;;;;;10.28;86.53;100207.80;95383;1180;81908;-57
2021/08/29 03:57:26;;;;;;;13.80;12.40;;;;;;;10.27;86.56;100205.85;95345;1180;97594;-57
2021/08/29 03:59:35;;;;;;;13.70;11.90;;;;;;;10.24;86.53;100202.52;95399;1180;86962;-60
2021/08/29 04:01:44;;;;;;;14.00;11.50;;;;;;;10.18;86.46;100209.15;95393;1180;92165;-61
2021/08/29 04:03:52;;;;;;;11.70;10.40;;;;;;;10.18;86.55;100205.77;95327;1180;81771;-60
2021/08/29 04:06:03;;;;;;;12.20;10.30;;;;;;;10.19;86.50;100206.14;95415;1180;81162;-60
2021/08/29 04:08:17;;;;;;;12.50;11.30;;;;;;;10.19;86.52;100205.13;95346;1180;99106;-60
2021/08/29 04:10:26;;;;;;;12.20;10.90;;;;;;;10.20;86.65;100207.60;95444;1180;87716;-60
2021/08/29 04:12:35;;;;;;;12.70;11.50;;;;;;;10.20;86.72;100209.00;95421;1180;92798;-60
2021/08/29 04:14:44;;;;;;;15.00;11.00;;;;;;;10.20;86.71;100216.23;95424;1180;79705;-61
2021/08/29 04:16:56;;;;;;;10.80;9.80;;;;;;;10.24;86.64;100221.96;95453;1179;80440;-59
2021/08/29 04:19:04;;;;;;;14.70;10.10;;;;;;;10.29;86.76;100221.39;95452;1180;97037;-56
2021/08/29 04:21:14;;;;;;;12.40;11.20;;;;;;;10.37;86.76;100219.16;95452;1180;87590;-57
2021/08/29 04:23:24;;;;;;;11.90;10.20;;;;;;;10.42;86.87;100217.96;95443;1180;93834;-56
2021/08/29 04:25:37;;;;;;;12.20;10.60;;;;;;;10.43;86.87;100217.84;95353;1180;81295;-56
2021/08/29 04:27:46;;;;;;;11.80;10.60;;;;;;;10.47;86.92;100219.88;95433;1180;82007;-57
2021/08/29 04:29:55;;;;;;;12.00;10.80;;;;;;;10.53;87.02;100222.14;95401;1180;97640;-55
2021/08/29 04:32:06;;;;;;;12.20;11.00;;;;;;;10.58;87.00;100220.08;95454;1179;88280;-57
2021/08/29 04:34:13;;;;;;;13.60;11.00;;;;;;;10.66;87.12;100220.27;95401;1180;93129;-56
2021/08/29 04:36:21;;;;;;;12.40;10.90;;;;;;;10.75;87.13;100221.55;95430;1180;81202;-55
2021/08/29 04:38:29;;;;;;;11.20;10.00;;;;;;;10.82;87.15;100219.52;95465;1180;82163;-56
2021/08/29 04:40:39;;;;;;;10.80;9.70;;;;;;;10.91;87.00;100216.23;95408;1180;98225;-55
2021/08/29 04:42:47;;;;;;;14.70;10.30;;;;;;;10.98;86.95;100212.09;95453;1180;87079;-56
2021/08/29 04:44:57;;;;;;;13.20;10.40;;;;;;;11.03;87.03;100217.16;95404;1180;93788;-56
2021/08/29 04:47:06;;;;;;;13.60;10.10;;;;;;;11.06;86.93;100222.89;95433;1180;79828;-57
2021/08/29 04:49:13;;;;;;;12.10;10.20;;;;;;;11.10;86.92;100222.20;95457;1180;81093;-55
2021/08/29 04:51:21;;;;;;;9.20;8.30;;;;;;;11.20;87.05;100225.33;95367;1180;98122;-57
2021/08/29 04:53:29;;;;;;;10.40;9.30;;;;;;;11.31;86.82;100224.18;95426;1179;88215;-61
2021/08/29 04:55:36;;;;;;;11.60;10.40;;;;;;;11.41;86.99;100226.88;95450;1180;92960;-61
2021/08/29 04:57:44;;;;;;;13.50;11.00;;;;;;;11.51;86.99;100224.14;95467;1180;78170;-61
2021/08/29 04:59:51;;;;;;;12.10;10.90;;;;;;;11.59;87.01;100220.98;95418;1180;81219;-55
2021/08/29 05:01:59;;;;;;;11.50;9.30;;;;;;;11.69;87.00;100216.01;95421;1180;98304;-57
2021/08/29 05:04:06;;;;;;;10.70;9.40;;;;;;;11.80;86.98;100212.08;95466;1180;86896;-59
2021/08/29 05:06:15;;;;;;;11.50;9.70;;;;;;;11.93;87.11;100213.09;95410;1179;95319;-60
2021/08/29 05:08:23;;;;;;;10.70;9.50;;;;;;;12.07;87.08;100212.23;95414;1180;78871;-56
2021/08/29 05:10:30;;;;;;;12.00;10.20;;;;;;;12.20;87.08;100213.41;95435;1180;81152;-57
2021/08/29 05:12:38;;;;;;;12.60;10.60;;;;;;;12.29;87.09;100217.91;95487;1178;97467;-59
2021/08/29 05:14:45;;;;;;;10.70;9.20;;;;;;;12.36;86.95;100216.27;95436;1180;87335;-59
2021/08/29 05:16:53;;;;;;;11.90;9.30;;;;;;;12.44;86.98;100213.31;95438;1180;93492;-60
2021/08/29 05:19:03;;;;;;;12.10;10.70;;;;;;;12.53;86.86;100217.99;95451;1180;78191;-57
2021/08/29 05:21:11;;;;;;;11.60;10.30;;;;;;;12.64;86.70;100216.34;95447;1180;82197;-57
2021/08/29 05:23:19;;;;;;;11.00;9.90;;;;;;;12.72;86.84;100221.19;95438;1179;98380;-58
2021/08/29 05:25:26;;;;;;;10.60;9.50;;;;;;;12.82;86.80;100227.71;95474;1180;87430;-57
2021/08/29 05:27:34;;;;;;;10.90;9.80;;;;;;;12.94;86.81;100226.61;95464;1180;94582;-56
2021/08/29 05:29:41;;;;;;;12.00;10.00;;;;;;;13.07;86.77;100226.70;95452;1180;81142;-57
2021/08/29 05:31:49;;;;;;;11.20;10.10;;;;;;;13.22;86.80;100227.51;95465;1180;81987;-57
2021/08/29 05:33:57;;;;;;;10.90;9.80;;;;;;;13.33;86.64;100226.83;95473;1178;97341;-60
2021/08/29 05:36:05;;;;;;;12.70;10.80;;;;;;;13.42;86.57;100227.61;95464;1180;88189;-59
2021/08/29 05:38:13;;;;;;;15.10;11.50;;;;;;;13.53;86.45;100228.32;95466;1180;94112;-60
2021/08/29 05:40:20;;;;;;;11.80;10.60;;;;;;;13.67;86.45;100227.66;95439;1180;79889;-60
2021/08/29 05:42:28;;;;;;;10.90;9.90;;;;;;;13.88;86.36;100229.55;95471;1180;81430;-59
2021/08/29 05:44:35;;;;;;;12.00;10.70;;;;;;;14.12;86.23;100228.69;95373;1180;97896;-59
2021/08/29 05:46:43;;;;;;;12.20;11.00;;;;;;;14.35;86.11;100228.35;95438;1180;87405;-58
2021/08/29 05:48:50;;;;;;;12.80;10.90;;;;;;;14.58;86.04;100222.98;95421;1179;94032;-59
2021/08/29 05:50:58;;;;;;;14.40;11.60;;;;;;;14.87;85.81;100220.30;95419;1180;79847;-61
2021/08/29 05:53:05;;;;;;;13.60;10.80;;;;;;;15.39;85.51;100216.52;95337;1180;81349;-62
2021/08/29 05:55:14;;;;;;;12.20;10.50;;;;;;;16.14;84.99;100215.82;95425;1179;98055;-60
2021/08/29 05:57:21;;;;;;;12.30;11.00;;;;;;;16.65;84.22;100210.73;95482;1179;87391;-61
2021/08/29 05:59:29;;;;;;;12.20;10.90;;;;;;;16.62;83.44;100207.66;95435;1180;94642;-57
2021/08/29 06:01:36;;;;;;;11.70;10.40;;;;;;;16.42;82.99;100212.88;95442;1180;79407;-56
2021/08/29 06:03:44;;;;;;;11.80;10.60;;;;;;;16.18;82.80;100209.98;95465;1179;80625;-57
2021/08/29 06:05:51;;;;;;;12.20;11.00;;;;;;;15.99;82.84;100209.71;95451;1180;97916;-56
2021/08/29 06:08:01;;;;;;;13.10;11.60;;;;;;;15.88;82.88;100200.03;95430;1180;87128;-56
2021/08/29 06:10:12;;;;;;;12.30;11.00;;;;;;;15.80;82.88;100197.02;95429;1180;93805;-56
2021/08/29 06:12:19;;;;;;;12.30;11.10;;;;;;;15.69;82.95;100190.21;95460;1180;80490;-54
2021/08/29 06:14:27;;;;;;;11.90;10.70;;;;;;;15.67;83.04;100190.85;95414;1180;81916;-56
2021/08/29 06:16:37;;;;;;;12.00;10.80;;;;;;;15.72;82.87;100195.91;95442;1180;98451;-56
2021/08/29 06:18:48;;;;;;;12.80;10.60;;;;;;;15.77;82.79;100195.84;95489;1180;87440;-55
2021/08/29 06:20:58;;;;;;;13.20;11.70;;;;;;;15.75;82.96;100191.06;95447;1180;93757;-57
2021/08/29 06:23:06;;;;;;;13.50;11.50;;;;;;;15.81;82.86;100187.04;95450;1178;78238;-56
2021/08/29 06:25:14;;;;;;;13.00;11.50;;;;;;;15.84;82.92;100184.56;95458;1180;81105;-57
2021/08/29 06:27:21;;;;;;;12.30;11.10;;;;;;;15.86;82.94;100182.38;95425;1179;97979;-57
2021/08/29 06:29:29;;;;;;;13.80;11.30;;;;;;;15.93;83.14;100181.32;95375;1180;88088;-60
2021/08/29 06:31:36;;;;;;;12.30;11.10;;;;;;;16.02;83.18;100185.17;95446;1180;93920;-60
2021/08/29 06:33:47;;;;;;;12.80;11.50;;;;;;;16.19;83.12;100186.66;95431;1178;78069;-57
2021/08/29 06:35:57;;;;;;;13.10;11.70;;;;;;;16.36;82.95;100182.31;95432;1180;81569;-56
2021/08/29 06:38:04;;;;;;;12.80;11.60;;;;;;;16.44;82.82;100177.23;95470;1180;97455;-54
2021/08/29 06:40:14;;;;;;;13.80;12.30;;;;;;;16.60;82.80;100183.99;95406;1180;87099;-60
2021/08/29 06:42:22;;;;;;;13.70;12.10;;;;;;;16.76;82.70;100183.66;95461;1180;94260;-59
2021/08/29 06:44:30;;;;;;;13.30;11.90;;;;;;;16.97;82.61;100185.67;95423;1180;78092;-56
2021/08/29 06:46:37;;;;;;;13.10;11.80;;;;;;;17.13;82.42;100181.02;95462;1180;81137;-58
2021/08/29 06:48:45;;;;;;;13.90;12.50;;;;;;;17.27;82.34;100183.77;95408;1178;98265;-59
2021/08/29 06:50:55;;;;;;;14.10;12.70;;;;;;;17.35;82.14;100183.48;95382;1180;88221;-60
2021/08/29 06:53:03;;;;;;;13.60;12.30;;;;;;;17.39;81.59;100184.88;95450;1180;92164;-59
2021/08/29 06:55:12;;;;;;;13.60;12.20;;;;;;;17.33;81.41;100180.26;95436;1180;79091;-59
2021/08/29 06:57:19;;;;;;;14.10;12.60;;;;;;;17.34;81.28;100176.64;95433;1180;81842;-59
2021/08/29 06:59:27;;;;;;;14.30;12.60;;;;;;;17.37;81.08;100184.84;95388;1180;97448;-60
2021/08/29 07:01:35;;;;;;;13.80;12.20;;;;;;;17.42;81.06;100188.87;95421;1179;88360;-59
2021/08/29 07:03:42;;;;;;;13.00;11.70;;;;;;;17.46;80.97;100185.20;95405;1180;94020;-56
2021/08/29 07:05:50;;;;;;;14.60;12.90;;;;;;;17.51;80.77;100187.65;95406;1180;78136;-56
2021/08/29 07:07:57;;;;;;;14.80;12.60;;;;;;;17.57;80.77;100187.72;95470;1180;80423;-56
2021/08/29 07:10:06;;;;;;;14.40;12.30;;;;;;;17.63;80.62;100188.61;95418;1179;97848;-57
2021/08/29 07:12:14;;;;;;;14.10;12.70;;;;;;;17.63;80.28;100187.91;95463;1179;87237;-56
2021/08/29 07:14:22;;;;;;;13.50;11.20;;;;;;;17.70;80.25;100188.55;95436;1180;93709;-55
2021/08/29 07:16:30;;;;;;;13.50;12.10;;;;;;;17.74;80.14;100186.34;95414;1180;81690;-55
2021/08/29 07:18:41;;;;;;;12.70;11.40;;;;;;;17.80;79.86;100188.27;95437;1180;79674;-57
2021/08/29 07:20:49;;;;;;;14.00;12.40;;;;;;;17.83;79.93;100191.33;95398;1180;96500;-58
2021/08/29 07:22:57;;;;;;;12.60;11.40;;;;;;;17.82;79.96;100188.14;95446;1180;86897;-60
2021/08/29 07:25:05;;;;;;;12.80;11.60;;;;;;;17.78;79.58;100187.52;95359;1180;94505;-68
2021/08/29 07:27:13;;;;;;;14.30;13.00;;;;;;;17.82;79.68;100183.98;95370;1180;78354;-68
2021/08/29 07:29:21;;;;;;;12.60;11.50;;;;;;;17.98;79.80;100186.83;95353;1180;80828;-66
2021/08/29 07:31:29;;;;;;;13.10;11.80;;;;;;;18.10;79.61;100192.72;95355;1178;97087;-66
2021/08/29 07:33:36;;;;;;;12.40;11.30;;;;;;;18.18;79.58;100193.97;95364;1180;87048;-66
2021/08/29 07:35:44;;;;;;;12.50;11.20;;;;;;;18.27;79.30;100193.52;95362;1180;94467;-62
2021/08/29 07:37:51;;;;;;;12.80;11.70;;;;;;;18.30;79.42;100186.21;95435;1180;78179;-63
2021/08/29 07:39:59;;;;;;;13.40;12.20;;;;;;;18.47;79.37;100184.25;95384;1180;81205;-59
2021/08/29 07:42:08;;;;;;;13.60;12.30;;;;;;;18.57;78.99;100193.04;95275;1179;98532;-59
2021/08/29 07:44:15;;;;;;;13.40;12.20;;;;;;;18.60;78.76;100196.92;95434;1180;86611;-66
2021/08/29 07:46:25;;;;;;;11.80;10.70;;;;;;;18.60;78.49;100197.58;95442;1180;93193;-64
2021/08/29 07:48:32;;;;;;;13.00;11.10;;;;;;;18.62;78.51;100197.38;95435;1180;81296;-64
2021/08/29 07:50:40;;;;;;;11.70;10.50;;;;;;;18.61;78.05;100195.84;95314;1180;81403;-66
2021/08/29 07:52:47;;;;;;;12.00;10.80;;;;;;;18.70;78.00;100189.69;95444;1180;99305;-67
2021/08/29 07:54:55;;;;;;;11.20;10.10;;;;;;;18.82;77.84;100195.67;95448;1180;87244;-64
2021/08/29 07:57:03;;;;;;;11.60;10.40;;;;;;;18.90;77.69;100194.42;95415;1179;93733;-64
2021/08/29 07:59:10;;;;;;;11.70;10.50;;;;;;;18.89;77.43;100194.84;95407;1180;78644;-65
2021/08/29 08:01:19;;;;;;;12.00;10.90;;;;;;;18.90;77.25;100194.47;95380;1180;81078;-65
2021/08/29 08:03:26;;;;;;;10.80;9.80;;;;;;;19.05;77.47;100191.02;95393;1179;97808;-61
2021/08/29 08:05:35;;;;;;;10.50;9.50;;;;;;;19.22;77.38;100189.52;95374;1179;87238;-61
2021/08/29 08:07:42;;;;;;;11.00;9.90;;;;;;;19.44;77.26;100193.16;95366;1179;94022;-61
2021/08/29 08:09:50;;;;;;;11.20;9.90;;;;;;;19.57;76.63;100199.15;95354;1180;79882;-60
2021/08/29 08:11:58;;;;;;;11.10;9.90;;;;;;;19.68;76.74;100201.89;95421;1179;83059;-59
2021/08/29 08:14:06;;;;;;;11.40;10.20;;;;;;;19.83;76.74;100197.92;95398;1180;98750;-58
2021/08/29 08:16:14;;;;;;;10.60;8.90;;;;;;;20.08;76.69;100195.81;95426;1180;87417;-56
2021/08/29 08:18:25;;;;;;;10.80;9.80;;;;;;;20.36;76.66;100195.78;95434;1180;92290;-58
2021/08/29 08:20:33;;;;;;;10.20;9.20;;;;;;;20.57;75.99;100194.85;95432;1180;79931;-57
2021/08/29 08:22:41;;;;;;;10.20;9.30;;;;;;;20.64;75.77;100196.56;95463;1180;81602;-57
2021/08/29 08:24:49;;;;;;;10.80;9.00;;;;;;;20.70;75.21;100196.07;95429;1180;99105;-57
2021/08/29 08:26:56;;;;;;;9.50;8.40;;;;;;;20.68;74.76;100203.84;95425;1180;86900;-60
2021/08/29 08:29:04;;;;;;;9.20;8.40;;;;;;;20.57;74.37;100199.02;95217;1180;93621;-59
2021/08/29 08:31:12;;;;;;;9.60;8.50;;;;;;;20.51;74.19;100197.05;95396;1180;79374;-57
2021/08/29 08:33:19;;;;;;;8.80;7.90;;;;;;;20.39;73.89;100196.08;95374;1180;82043;-59
2021/08/29 08:35:27;;;;;;;10.10;8.40;;;;;;;20.18;73.82;100191.70;95396;1180;99259;-61
2021/08/29 08:37:34;;;;;;;9.30;8.40;;;;;;;20.19;73.86;100191.73;95424;1179;86926;-61
2021/08/29 08:39:42;;;;;;;8.60;7.70;;;;;;;20.10;73.42;100192.61;95411;1178;93312;-60
2021/08/29 08:41:50;;;;;;;11.90;8.30;;;;;;;20.05;73.66;100191.94;95459;1180;78648;-59
2021/08/29 08:43:58;;;;;;;8.50;7.70;;;;;;;20.04;73.59;100192.04;95418;1179;80968;-59
2021/08/29 08:46:09;;;;;;;9.20;8.30;;;;;;;20.05;73.58;100195.06;95446;1179;98834;-59
2021/08/29 08:48:22;;;;;;;7.70;7.00;;;;;;;20.02;73.64;100195.10;95445;1180;88120;-59
2021/08/29 08:50:33;;;;;;;8.30;7.50;;;;;;;19.90;73.56;100189.89;95397;1180;94655;-60
2021/08/29 08:52:42;;;;;;;8.90;8.10;;;;;;;19.59;72.83;100190.09;95446;1180;79692;-60
2021/08/29 08:54:56;;;;;;;9.00;8.10;;;;;;;19.43;72.83;100193.20;95458;1180;81295;-58
2021/08/29 08:57:05;;;;;;;8.60;7.70;;;;;;;19.37;73.06;100198.75;95405;1180;98564;-58
2021/08/29 08:59:13;;;;;;;9.50;8.50;;;;;;;19.46;73.31;100197.73;95429;1180;86608;-61
2021/08/29 09:01:20;;;;;;;10.60;9.70;;;;;;;19.52;73.49;100196.23;95311;1180;93544;-68
2021/08/29 09:03:28;;;;;;;10.00;9.10;;;;;;;19.56;73.55;100197.50;95419;1180;79699;-59
2021/08/29 09:05:40;;;;;;;9.90;8.90;;;;;;;19.64;73.64;100197.66;95394;1180;81488;-60
2021/08/29 09:07:48;;;;;;;9.60;8.70;;;;;;;19.73;73.74;100200.80;95388;1180;97931;-58
2021/08/29 09:10:00;;;;;;;10.70;9.10;;;;;;;19.79;73.57;100201.05;95372;1180;87354;-60
2021/08/29 09:12:11;;;;;;;10.50;9.10;;;;;;;19.88;73.50;100204.91;95408;1180;94916;-60
2021/08/29 09:14:37;;;;;;;9.50;8.50;;;;;;;19.89;73.39;100204.91;95390;1180;77541;-66
2021/08/29 09:16:52;;;;;;;9.70;8.80;;;;;;;19.86;73.49;100205.98;95436;1180;80826;-66
2021/08/29 09:19:03;;;;;;;8.80;7.90;;;;;;;19.88;73.73;100208.45;95391;1180;98425;-60
2021/08/29 09:21:18;;;;;;;9.70;8.70;;;;;;;19.94;73.40;100212.05;95456;1179;87737;-59
2021/08/29 09:23:26;;;;;;;8.50;7.20;;;;;;;19.99;73.41;100211.84;95456;1180;93071;-60
2021/08/29 09:25:41;;;;;;;7.30;6.60;;;;;;;20.03;73.13;100208.11;95430;1178;78082;-60
2021/08/29 09:27:52;;;;;;;8.00;7.20;;;;;;;20.04;73.10;100200.43;95425;1180;82070;-59
2021/08/29 09:30:05;;;;;;;6.50;5.90;;;;;;;20.11;73.03;100195.36;95419;1180;99115;-66
2021/08/29 09:32:12;;;;;;;7.20;6.50;;;;;;;20.11;72.97;100196.24;95450;1180;87456;-66
2021/08/29 09:34:23;;;;;;;6.80;6.10;;;;;;;20.09;72.91;100196.88;95417;1178;94871;-58
2021/08/29 09:36:38;;;;;;;6.90;6.20;;;;;;;20.05;72.92;100190.84;95387;1180;78655;-59
2021/08/29 09:38:48;;;;;;;6.80;6.20;;;;;;;19.99;72.80;100188.26;95390;1180;81696;-66
2021/08/29 09:40:56;;;;;;;6.60;6.00;;;;;;;19.97;72.74;100192.52;95422;1180;98321;-65
2021/08/29 09:43:08;;;;;;;6.70;6.10;;;;;;;19.74;72.40;100195.16;95380;1180;86687;-60
2021/08/29 09:45:24;;;;;;;6.90;6.30;;;;;;;19.74;72.93;100191.06;95387;1180;92642;-65
2021/08/29 09:47:33;;;;;;;7.50;6.70;;;;;;;19.75;73.13;100192.84;95416;1180;81117;-64
2021/08/29 09:49:44;;;;;;;7.30;6.70;;;;;;;19.76;73.10;100192.23;95371;1180;81436;-64